Lawrence, Kansas
Current Conditions -  °F | °C
As of 11:52 AM on Sunday 21 Dec 2014 (Local Time) from KLWC Reporting Station
Overcast Overcast  
Wind Chill: 36°   Ceiling: 1200
Heat Index: 43°   Visibility: 8mi
Dew Point: 38°   Wind: 13mph
Humidity: 82%   Direction: 170°S
Pressure: 29.94"   Gusts: NA
Location:  38.97°N, 95.24°W
Report Text: KLWC 211752Z AUTO 17011KT 8SM OVC012 06/03 A2994 RMK AO2 SLP141 T00610033 10061 20033 58025
Loading
Personal Weather Stations






























Interactive Weather Map New forecast layout! Learn more

10-Day Weather Forecast

Advertisements
Track Severe Weather on mobile